createdAt,value
2023-03-20T00:02:22.818Z,20.47
2023-03-20T00:04:49.476Z,28.40
2023-03-20T00:07:16.148Z,27.97
2023-03-20T00:09:42.628Z,19.73
2023-03-20T00:12:17.682Z,18.73
2023-03-20T00:14:44.162Z,18.97
2023-03-20T00:17:17.467Z,21.27
2023-03-20T00:19:43.944Z,23.30
2023-03-20T00:22:11.849Z,18.90
2023-03-20T00:24:38.472Z,21.13
2023-03-20T00:27:05.322Z,21.40
2023-03-20T00:29:33.605Z,23.73
2023-03-20T00:32:00.251Z,20.87
2023-03-20T00:34:28.920Z,17.23
2023-03-20T00:36:56.117Z,21.30
2023-03-20T00:39:23.082Z,18.37
2023-03-20T00:42:08.024Z,23.33
2023-03-20T00:44:52.473Z,16.07
2023-03-20T00:47:23.454Z,16.60
2023-03-20T00:49:53.508Z,17.80
2023-03-20T00:52:21.854Z,18.13
2023-03-20T00:54:48.433Z,22.30
2023-03-20T00:57:38.102Z,20.33
2023-03-20T01:00:35.653Z,17.13
2023-03-20T01:03:29.358Z,19.33
2023-03-20T01:05:56.734Z,20.00
2023-03-20T01:08:25.462Z,21.53
2023-03-20T01:10:57.734Z,28.30
2023-03-20T01:13:28.847Z,21.80
2023-03-20T01:15:57.679Z,23.43
2023-03-20T01:18:26.210Z,23.83
2023-03-20T01:20:53.169Z,17.87
2023-03-20T01:23:22.304Z,23.70
2023-03-20T01:25:49.984Z,22.87
2023-03-20T01:28:31.867Z,17.57
2023-03-20T01:30:59.494Z,18.70
2023-03-20T01:33:27.086Z,19.20
2023-03-20T01:35:53.962Z,17.70
2023-03-20T01:38:24.790Z,20.80
2023-03-20T01:41:36.602Z,18.53
2023-03-20T01:44:27.498Z,20.63
2023-03-20T01:46:54.866Z,19.07
2023-03-20T01:50:19.146Z,18.37
2023-03-20T01:52:49.319Z,19.83
2023-03-20T01:55:16.881Z,23.83
2023-03-20T01:57:43.793Z,20.50
2023-03-20T02:00:15.929Z,23.33
2023-03-20T02:02:46.360Z,21.37
2023-03-20T02:05:19.572Z,24.93
2023-03-20T02:08:10.847Z,21.17
2023-03-20T02:10:38.333Z,22.03
2023-03-20T02:13:07.359Z,22.03
2023-03-20T02:15:35.688Z,19.30
2023-03-20T02:18:02.836Z,20.97
2023-03-20T02:22:13.133Z,22.30
2023-03-20T02:25:19.101Z,17.90
2023-03-20T02:29:52.985Z,21.40
2023-03-20T02:36:53.544Z,20.43
2023-03-20T02:45:10.324Z,24.20
2023-03-20T02:49:28.457Z,19.17
2023-03-20T02:52:28.561Z,19.73
2023-03-20T02:57:43.557Z,18.57
2023-03-20T03:00:34.760Z,19.63
2023-03-20T03:03:32.262Z,19.10
2023-03-20T03:06:18.097Z,22.90
2023-03-20T03:08:51.851Z,19.03
2023-03-20T03:11:18.527Z,28.17
2023-03-20T03:13:56.481Z,22.77
2023-03-20T03:16:32.936Z,18.10
2023-03-20T03:19:13.168Z,23.07
2023-03-20T03:21:41.227Z,22.73
2023-03-20T03:24:42.462Z,18.17
2023-03-20T03:27:32.668Z,17.57
2023-03-20T03:30:26.344Z,21.50
2023-03-20T03:33:30.126Z,25.67
2023-03-20T03:37:55.004Z,18.77
2023-03-20T03:44:54.293Z,25.33
2023-03-20T03:47:38.922Z,20.60
2023-03-20T03:50:30.821Z,19.30
2023-03-20T03:53:05.168Z,23.20
2023-03-20T03:55:39.347Z,26.63
2023-03-20T03:58:18.219Z,28.00
2023-03-20T04:00:49.852Z,23.57
2023-03-20T04:03:19.473Z,20.90
2023-03-20T04:05:48.494Z,23.90
2023-03-20T04:08:15.791Z,24.53
2023-03-20T04:10:42.321Z,25.90
2023-03-20T04:13:09.673Z,23.07
2023-03-20T04:15:36.487Z,19.93
2023-03-20T04:18:03.811Z,21.70
2023-03-20T04:20:30.276Z,20.57
2023-03-20T04:22:56.759Z,18.83
2023-03-20T04:25:28.490Z,19.60
2023-03-20T04:27:55.361Z,19.93
2023-03-20T04:30:22.182Z,24.77
2023-03-20T04:32:48.692Z,19.90
2023-03-20T04:35:15.497Z,20.43
2023-03-20T04:37:41.996Z,24.53
2023-03-20T04:40:09.936Z,32.20
2023-03-20T04:42:39.358Z,45.33
2023-03-20T04:45:07.696Z,24.47
2023-03-20T04:47:34.191Z,19.83
2023-03-20T04:50:00.692Z,28.13
2023-03-20T04:52:27.229Z,18.97
2023-03-20T04:54:53.710Z,18.27
2023-03-20T04:57:20.182Z,25.33
2023-03-20T04:59:46.660Z,17.60
2023-03-20T05:02:14.321Z,22.00
2023-03-20T05:04:42.346Z,21.87
2023-03-20T05:07:09.020Z,25.87
2023-03-20T05:09:35.617Z,23.07
2023-03-20T05:12:02.105Z,22.60
2023-03-20T05:14:28.568Z,25.87
2023-03-20T05:16:55.559Z,22.50
2023-03-20T05:19:22.317Z,25.60
2023-03-20T05:21:48.806Z,22.67
2023-03-20T05:24:15.264Z,34.03
2023-03-20T05:26:41.743Z,26.07
2023-03-20T05:29:08.232Z,19.87
2023-03-20T05:31:34.730Z,23.97
2023-03-20T05:34:01.189Z,22.83
2023-03-20T05:36:27.690Z,17.67
2023-03-20T05:38:54.167Z,31.27
2023-03-20T05:41:20.719Z,21.07
2023-03-20T05:43:47.196Z,22.67
2023-03-20T05:46:15.237Z,23.90
2023-03-20T05:48:41.963Z,23.50
2023-03-20T05:51:08.423Z,22.60
2023-03-20T05:53:34.900Z,24.23
2023-03-20T05:56:01.361Z,21.43
2023-03-20T05:58:27.857Z,21.33
2023-03-20T06:00:57.002Z,22.07
2023-03-20T06:03:23.577Z,22.90
2023-03-20T06:05:50.154Z,27.67
2023-03-20T06:08:16.698Z,19.73
2023-03-20T06:10:43.201Z,26.67
2023-03-20T06:13:09.684Z,26.60
2023-03-20T06:15:36.515Z,20.83
2023-03-20T06:18:03.319Z,20.50
2023-03-20T06:20:30.881Z,25.60
2023-03-20T06:22:57.348Z,20.57
2023-03-20T06:25:23.852Z,28.40
2023-03-20T06:27:50.330Z,33.53
2023-03-20T06:30:17.216Z,33.13
2023-03-20T06:32:44.037Z,32.93
2023-03-20T06:35:11.474Z,22.37
2023-03-20T06:37:38.309Z,26.40
2023-03-20T06:40:06.098Z,28.03
2023-03-20T06:42:32.624Z,28.33
2023-03-20T06:44:59.085Z,23.73
2023-03-20T06:47:25.568Z,19.87
2023-03-20T06:49:52.047Z,20.20
2023-03-20T06:52:24.427Z,28.10
2023-03-20T06:54:51.396Z,26.47
2023-03-20T06:57:18.026Z,22.93
2023-03-20T06:59:44.500Z,28.50
2023-03-20T07:02:11.549Z,28.63
2023-03-20T07:04:38.149Z,24.43
2023-03-20T07:07:04.751Z,24.53
2023-03-20T07:09:32.263Z,19.27
2023-03-20T07:11:59.298Z,22.80
2023-03-20T07:14:25.873Z,24.37
2023-03-20T07:16:52.408Z,21.83
2023-03-20T07:19:19.502Z,21.60
2023-03-20T07:21:45.994Z,27.20
2023-03-20T07:24:12.854Z,27.23
2023-03-20T07:26:40.380Z,33.00
2023-03-20T07:29:07.476Z,26.33
2023-03-20T07:31:34.055Z,22.40
2023-03-20T07:34:00.600Z,26.10
2023-03-20T07:36:27.097Z,22.43
2023-03-20T07:38:53.585Z,21.17
2023-03-20T07:41:20.074Z,22.33
2023-03-20T07:43:46.556Z,19.43
2023-03-20T07:46:13.102Z,25.93
2023-03-20T07:48:39.633Z,20.53
2023-03-20T07:51:06.471Z,24.67
2023-03-20T07:53:32.968Z,19.77
2023-03-20T07:55:59.462Z,18.27
2023-03-20T07:58:26.127Z,28.00
2023-03-20T08:00:57.761Z,31.20
2023-03-20T08:03:24.550Z,22.93
2023-03-20T08:05:51.104Z,41.83
2023-03-20T08:08:17.789Z,36.50
2023-03-20T08:10:44.572Z,35.00
2023-03-20T08:13:11.019Z,39.00
2023-03-20T08:15:38.477Z,36.30
2023-03-20T08:18:05.518Z,28.73
2023-03-20T08:20:32.395Z,27.50
2023-03-20T08:22:58.913Z,27.10
2023-03-20T08:25:25.427Z,33.73
2023-03-20T08:27:51.945Z,37.20
2023-03-20T08:30:18.504Z,35.10
2023-03-20T08:32:45.090Z,33.40
2023-03-20T08:35:22.242Z,39.20
2023-03-20T08:37:58.569Z,39.10
2023-03-20T08:40:25.163Z,34.50
2023-03-20T08:42:51.707Z,35.20
2023-03-20T08:45:18.361Z,36.07
2023-03-20T08:47:48.036Z,34.70
2023-03-20T08:50:15.393Z,37.90
2023-03-20T08:52:43.305Z,47.87
2023-03-20T08:55:14.332Z,34.30
2023-03-20T08:57:41.610Z,36.27
2023-03-20T09:00:13.581Z,35.23
2023-03-20T09:02:40.872Z,34.47
2023-03-20T09:05:09.169Z,36.00
2023-03-20T09:07:36.260Z,30.67
2023-03-20T09:10:04.018Z,34.83
2023-03-20T09:12:31.954Z,36.93
2023-03-20T09:14:59.219Z,33.40
2023-03-20T09:17:25.919Z,28.60
2023-03-20T09:19:52.950Z,32.70
2023-03-20T09:22:19.622Z,32.30
2023-03-20T09:24:46.481Z,42.07
2023-03-20T09:27:13.254Z,34.30
2023-03-20T09:29:43.405Z,33.27
2023-03-20T09:32:14.617Z,26.43
2023-03-20T09:34:41.756Z,25.60
2023-03-20T09:37:08.247Z,25.80
2023-03-20T09:39:34.983Z,22.90
2023-03-20T09:43:05.437Z,32.73
2023-03-20T09:47:18.510Z,27.43
2023-03-20T09:52:28.202Z,27.83
2023-03-20T09:55:59.176Z,30.93
2023-03-20T09:58:37.840Z,26.67
2023-03-20T10:01:10.791Z,29.77
2023-03-20T10:03:55.050Z,23.17
2023-03-20T10:06:21.578Z,28.77
2023-03-20T10:08:49.151Z,25.43
2023-03-20T10:14:36.447Z,27.70
2023-03-20T10:21:39.320Z,29.13
2023-03-20T10:24:20.422Z,42.57
2023-03-20T10:26:52.215Z,32.77
2023-03-20T10:32:10.398Z,42.70
2023-03-20T10:35:07.368Z,42.27
2023-03-20T10:40:31.226Z,37.77
2023-03-20T10:43:03.551Z,54.43
2023-03-20T10:47:05.033Z,36.07
2023-03-20T10:49:47.210Z,30.03
2023-03-20T10:52:37.407Z,29.07
2023-03-20T10:55:16.020Z,27.17
2023-03-20T10:57:54.059Z,30.33
2023-03-20T11:00:26.345Z,31.77
2023-03-20T11:02:53.034Z,30.17
2023-03-20T11:05:37.438Z,29.37
2023-03-20T11:08:14.129Z,39.00
2023-03-20T11:10:43.490Z,30.40
2023-03-20T11:13:29.407Z,23.50
2023-03-20T11:15:56.748Z,19.95
2023-03-20T11:18:26.647Z,24.70
2023-03-20T11:20:57.752Z,23.65
2023-03-20T11:23:31.659Z,26.03
2023-03-20T11:26:05.894Z,31.23
2023-03-20T11:28:48.266Z,29.42
2023-03-20T11:31:51.620Z,26.70
2023-03-20T11:34:28.912Z,31.57
2023-03-20T11:37:09.824Z,36.17
2023-03-20T11:39:39.199Z,28.05
2023-03-20T11:42:24.617Z,31.45
2023-03-20T11:45:00.827Z,23.12
2023-03-20T11:47:35.005Z,34.20
2023-03-20T11:50:06.671Z,32.03
2023-03-20T11:52:38.754Z,39.00
2023-03-20T11:55:32.675Z,34.60
2023-03-20T11:58:03.489Z,42.35
2023-03-20T12:00:39.156Z,30.70
2023-03-20T12:04:02.010Z,21.90
2023-03-20T12:07:38.556Z,25.20
2023-03-20T12:10:12.175Z,25.25
2023-03-20T12:13:00.509Z,24.77
2023-03-20T12:15:43.844Z,22.05
2023-03-20T12:23:43.572Z,19.67
2023-03-20T12:27:48.169Z,21.20
2023-03-20T12:31:23.873Z,18.92
2023-03-20T12:34:16.230Z,16.35
2023-03-20T12:36:47.457Z,10.00
2023-03-20T12:39:23.384Z,10.18
2023-03-20T12:42:59.407Z,15.00
2023-03-20T12:45:56.090Z,6.65
2023-03-20T12:48:55.157Z,24.05
2023-03-20T12:52:00.181Z,15.57
2023-03-20T12:55:20.725Z,13.95
2023-03-20T12:58:13.905Z,9.68
2023-03-20T13:01:20.393Z,8.55
2023-03-20T13:04:59.494Z,11.98
2023-03-20T13:08:12.676Z,11.30
2023-03-20T13:10:49.143Z,10.52
2023-03-20T13:14:01.521Z,8.27
2023-03-20T13:16:57.424Z,7.50
2023-03-20T13:20:48.015Z,9.00
2023-03-20T13:23:37.242Z,15.45
2023-03-20T13:27:51.668Z,8.32
2023-03-20T13:30:44.459Z,11.55
2023-03-20T13:33:52.182Z,5.35
2023-03-20T13:37:48.527Z,6.05
2023-03-20T13:40:29.631Z,7.37
2023-03-20T13:43:47.323Z,5.87
2023-03-20T13:46:23.222Z,5.35
2023-03-20T13:48:53.924Z,10.13
2023-03-20T13:53:08.733Z,8.38
2023-03-20T13:56:30.204Z,6.35
2023-03-20T14:00:00.552Z,9.73
2023-03-20T14:04:14.191Z,6.15
2023-03-20T14:07:31.333Z,6.45
2023-03-20T14:10:47.286Z,8.27
2023-03-20T14:13:18.955Z,5.72
2023-03-20T14:15:57.061Z,9.27
2023-03-20T14:18:25.743Z,7.03
2023-03-20T14:21:02.204Z,7.45
2023-03-20T14:23:49.896Z,8.48
2023-03-20T14:26:34.293Z,9.93
2023-03-20T14:29:26.080Z,12.88
2023-03-20T14:32:04.026Z,6.68
2023-03-20T14:34:47.402Z,4.85
2023-03-20T14:37:58.914Z,5.22
2023-03-20T14:40:36.006Z,5.72
2023-03-20T14:47:03.808Z,7.65
2023-03-20T14:53:27.048Z,4.62
2023-03-20T14:56:15.022Z,9.70
2023-03-20T14:59:04.252Z,6.72
2023-03-20T15:02:04.046Z,6.18
2023-03-20T15:04:42.161Z,7.22
2023-03-20T15:07:30.819Z,9.80
2023-03-20T15:10:02.191Z,6.90
2023-03-20T15:12:35.388Z,6.35
2023-03-20T15:15:06.387Z,5.85
2023-03-20T15:17:46.549Z,9.07
2023-03-20T15:20:28.622Z,6.10
2023-03-20T15:23:01.148Z,5.30
2023-03-20T15:25:45.711Z,6.00
2023-03-20T15:28:25.650Z,7.22
2023-03-20T15:30:57.232Z,3.28
2023-03-20T15:33:42.063Z,3.45
2023-03-20T15:36:24.322Z,10.90
2023-03-20T15:38:51.167Z,5.43
2023-03-20T15:41:31.301Z,5.65
2023-03-20T15:44:41.343Z,5.15
2023-03-20T15:47:21.776Z,7.90
2023-03-20T15:50:01.934Z,5.78
2023-03-20T15:52:43.138Z,8.40
2023-03-20T15:55:19.431Z,6.50
2023-03-20T15:57:49.441Z,9.88
2023-03-20T16:00:33.304Z,14.25
2023-03-20T16:03:04.805Z,7.75
2023-03-20T16:05:31.803Z,6.37
2023-03-20T16:08:14.165Z,7.62
2023-03-20T16:10:42.942Z,13.30
2023-03-20T16:13:19.188Z,9.75
2023-03-20T16:15:46.125Z,8.00
2023-03-20T16:18:16.948Z,5.35
2023-03-20T16:21:02.399Z,4.80
2023-03-20T16:23:41.254Z,7.03
2023-03-20T16:26:15.342Z,6.45
2023-03-20T16:28:44.698Z,5.10
2023-03-20T16:31:27.271Z,5.28
2023-03-20T16:33:58.650Z,13.90
2023-03-20T16:36:37.867Z,10.63
2023-03-20T16:39:18.747Z,7.32
2023-03-20T16:41:49.223Z,8.23
2023-03-20T16:44:22.539Z,7.30
2023-03-20T16:48:38.707Z,7.87
2023-03-20T16:51:22.076Z,14.67
2023-03-20T16:54:00.628Z,22.92
2023-03-20T16:56:37.417Z,11.47
2023-03-20T16:59:18.374Z,30.03
2023-03-20T17:01:47.796Z,22.57
2023-03-20T17:04:37.700Z,22.13
2023-03-20T17:07:17.122Z,23.80
2023-03-20T17:10:09.670Z,18.90
2023-03-20T17:12:38.867Z,20.17
2023-03-20T17:15:06.479Z,15.97
2023-03-20T17:17:33.703Z,14.63
2023-03-20T17:20:00.468Z,15.53
2023-03-20T17:22:32.647Z,18.47
2023-03-20T17:24:59.492Z,18.13
2023-03-20T17:27:28.823Z,19.80
2023-03-20T17:29:55.518Z,13.93
2023-03-20T17:32:25.761Z,15.97
2023-03-20T17:34:52.542Z,13.13
2023-03-20T17:37:28.335Z,12.30
2023-03-20T17:39:56.117Z,13.77
2023-03-20T17:42:26.088Z,12.50
2023-03-20T17:44:53.097Z,9.47
2023-03-20T17:47:24.206Z,14.80
2023-03-20T17:49:53.620Z,13.37
2023-03-20T17:52:27.976Z,13.17
2023-03-20T17:54:54.447Z,13.77
2023-03-20T17:57:32.054Z,12.73
2023-03-20T18:00:00.231Z,13.50
2023-03-20T18:02:26.900Z,12.60
2023-03-20T18:04:53.401Z,11.27
2023-03-20T18:07:20.296Z,8.73
2023-03-20T18:09:48.282Z,9.47
2023-03-20T18:12:17.794Z,10.97
2023-03-20T18:14:45.783Z,10.83
2023-03-20T18:17:14.533Z,16.90
2023-03-20T18:19:42.706Z,18.30
2023-03-20T18:22:09.549Z,10.60
2023-03-20T18:24:36.127Z,12.87
2023-03-20T18:27:03.233Z,11.90
2023-03-20T18:29:29.874Z,23.80
2023-03-20T18:31:56.411Z,24.27
2023-03-20T18:34:22.956Z,15.67
2023-03-20T18:36:49.573Z,11.77
2023-03-20T18:39:22.609Z,15.23
2023-03-20T18:41:49.907Z,10.07
2023-03-20T18:44:16.895Z,11.43
2023-03-20T18:46:43.614Z,12.13
2023-03-20T18:49:18.069Z,13.07
2023-03-20T18:51:45.312Z,13.40
2023-03-20T18:54:12.145Z,12.17
2023-03-20T18:56:38.676Z,12.47
2023-03-20T18:59:07.495Z,13.10
2023-03-20T19:01:35.188Z,15.90
2023-03-20T19:04:01.802Z,9.23
2023-03-20T19:06:31.197Z,9.67
2023-03-20T19:08:57.760Z,17.03
2023-03-20T19:11:24.544Z,11.97
2023-03-20T19:13:53.002Z,11.90
2023-03-20T19:16:28.750Z,15.80
2023-03-20T19:19:00.612Z,12.47
2023-03-20T19:21:32.749Z,10.37
2023-03-20T19:24:04.004Z,9.23
2023-03-20T19:26:32.713Z,15.27
2023-03-20T19:29:01.300Z,16.33
2023-03-20T19:31:28.603Z,8.20
2023-03-20T19:33:55.944Z,9.13
2023-03-20T19:36:35.576Z,10.80
2023-03-20T19:39:05.523Z,13.50
2023-03-20T19:41:32.540Z,16.07
2023-03-20T19:43:59.581Z,8.43
2023-03-20T19:46:43.254Z,15.27
2023-03-20T19:49:23.546Z,9.50
2023-03-20T19:51:56.178Z,13.77
2023-03-20T19:54:22.635Z,11.97
2023-03-20T19:56:49.124Z,9.83
2023-03-20T19:59:16.871Z,8.23
2023-03-20T20:01:44.764Z,7.23
2023-03-20T20:04:11.285Z,9.57
2023-03-20T20:06:39.767Z,7.67
2023-03-20T20:09:07.348Z,11.77
2023-03-20T20:11:33.823Z,8.77
2023-03-20T20:14:09.312Z,10.87
2023-03-20T20:16:38.924Z,9.63
2023-03-20T20:19:05.839Z,7.53
2023-03-20T20:24:29.213Z,10.17
2023-03-20T20:27:15.299Z,9.73
2023-03-20T20:29:47.352Z,10.20
2023-03-20T20:32:13.812Z,12.50
2023-03-20T20:40:37.454Z,11.03
2023-03-20T20:43:10.026Z,8.07
2023-03-20T20:45:37.724Z,11.00
2023-03-20T20:48:06.526Z,9.70
2023-03-20T20:50:38.367Z,8.97
2023-03-20T20:53:06.083Z,6.83
2023-03-20T20:55:32.573Z,7.07
2023-03-20T20:58:00.515Z,11.63
2023-03-20T21:00:40.931Z,4.17
2023-03-20T21:03:14.399Z,5.43
2023-03-20T21:05:43.567Z,5.63
2023-03-20T21:08:11.289Z,8.27
2023-03-20T21:10:37.776Z,7.90
2023-03-20T21:13:04.252Z,9.07
2023-03-20T21:15:30.752Z,6.60
2023-03-20T21:18:01.404Z,7.43
2023-03-20T21:20:30.513Z,5.57
2023-03-20T21:22:57.476Z,8.53
2023-03-20T21:25:38.788Z,6.90
2023-03-20T21:28:07.021Z,8.37
2023-03-20T21:30:33.879Z,8.23
2023-03-20T21:33:00.505Z,10.97
2023-03-20T21:35:27.897Z,7.87
2023-03-20T21:40:50.955Z,9.47
2023-03-20T21:43:17.477Z,13.13
2023-03-20T21:54:09.588Z,8.93
2023-03-20T21:57:39.589Z,9.90
2023-03-20T22:04:31.586Z,5.27
2023-03-20T22:11:09.532Z,6.70
2023-03-20T22:17:40.907Z,6.17
2023-03-20T22:35:54.427Z,5.03
2023-03-20T22:42:19.938Z,7.70
2023-03-20T22:45:01.059Z,5.27
2023-03-20T22:47:29.315Z,4.73
2023-03-20T22:49:55.919Z,5.73
2023-03-20T22:52:34.797Z,5.73
2023-03-20T22:55:09.158Z,5.13
2023-03-20T22:57:47.411Z,9.40
2023-03-20T23:00:19.779Z,4.50
2023-03-20T23:02:47.437Z,9.00
2023-03-20T23:05:14.014Z,4.80
2023-03-20T23:07:40.490Z,8.33
2023-03-20T23:10:08.990Z,10.63
2023-03-20T23:12:37.481Z,7.47
2023-03-20T23:15:06.206Z,3.63
2023-03-20T23:17:32.672Z,3.90
2023-03-20T23:20:10.452Z,5.80
2023-03-20T23:22:38.662Z,5.57
2023-03-20T23:25:16.530Z,4.63
2023-03-20T23:27:51.115Z,4.60
2023-03-20T23:30:18.998Z,6.43
2023-03-20T23:32:45.470Z,5.07
2023-03-20T23:35:12.312Z,4.80
2023-03-20T23:37:39.193Z,5.37
2023-03-20T23:40:07.043Z,5.67
2023-03-20T23:42:33.616Z,4.97
2023-03-20T23:45:13.232Z,5.10
2023-03-20T23:47:47.326Z,6.50
2023-03-20T23:50:26.500Z,3.73
2023-03-20T23:53:06.483Z,5.30
2023-03-20T23:55:41.574Z,3.83
2023-03-20T23:58:08.442Z,3.93
